createdAt,value
2019-04-03T00:02:17.230Z,61.22
2019-04-03T00:04:47.667Z,62.86
2019-04-03T00:07:18.018Z,62.43
2019-04-03T00:09:48.455Z,62.45
2019-04-03T00:12:19.016Z,62.24
2019-04-03T00:14:49.393Z,62.66
2019-04-03T00:17:19.833Z,62.71
2019-04-03T00:19:50.216Z,63.60
2019-04-03T00:22:21.965Z,63.91
2019-04-03T00:24:52.908Z,64.97
2019-04-03T00:27:23.605Z,64.97
2019-04-03T00:29:53.973Z,65.47
2019-04-03T00:32:24.443Z,64.90
2019-04-03T00:34:54.927Z,65.63
2019-04-03T00:37:25.374Z,66.16
2019-04-03T00:39:55.708Z,65.43
2019-04-03T00:42:26.179Z,66.20
2019-04-03T00:44:56.781Z,67.14
2019-04-03T00:47:27.164Z,66.40
2019-04-03T00:49:57.597Z,66.69
2019-04-03T00:52:28.135Z,66.48
2019-04-03T00:54:58.614Z,67.12
2019-04-03T00:57:29.277Z,66.79
2019-04-03T00:59:59.814Z,67.60
2019-04-03T01:02:30.207Z,68.28
2019-04-03T01:05:00.658Z,68.34
2019-04-03T01:07:30.985Z,68.64
2019-04-03T01:10:01.599Z,68.93
2019-04-03T01:12:31.941Z,68.74
2019-04-03T01:15:02.583Z,69.86
2019-04-03T01:17:34.931Z,69.58
2019-04-03T01:20:06.338Z,68.91
2019-04-03T01:22:37.874Z,68.96
2019-04-03T01:25:09.436Z,69.10
2019-04-03T01:27:41.534Z,68.84
2019-04-03T01:30:14.014Z,68.98
2019-04-03T01:32:46.086Z,69.70
2019-04-03T01:35:17.436Z,68.95
2019-04-03T01:37:49.912Z,69.86
2019-04-03T01:40:21.081Z,70.15
2019-04-03T01:42:52.820Z,69.60
2019-04-03T01:45:25.916Z,68.40
2019-04-03T01:47:58.188Z,67.63
2019-04-03T01:50:28.703Z,67.22
2019-04-03T01:53:01.683Z,66.46
2019-04-03T01:55:34.001Z,66.15
2019-04-03T01:58:06.088Z,66.02
2019-04-03T02:00:37.641Z,64.74
2019-04-03T02:03:10.317Z,63.41
2019-04-03T02:05:43.274Z,63.17
2019-04-03T02:08:14.555Z,64.86
2019-04-03T02:10:45.438Z,65.90
2019-04-03T02:13:17.262Z,65.63
2019-04-03T02:15:52.223Z,66.00
2019-04-03T02:18:23.600Z,66.34
2019-04-03T02:20:57.325Z,66.95
2019-04-03T02:23:26.859Z,67.89
2019-04-03T02:25:57.308Z,67.60
2019-04-03T02:28:27.752Z,68.52
2019-04-03T02:30:58.233Z,66.79
2019-04-03T02:33:29.461Z,65.23
2019-04-03T02:36:00.245Z,65.12
2019-04-03T02:38:30.832Z,62.04
2019-04-03T02:41:03.451Z,65.41
2019-04-03T02:43:33.542Z,64.93
2019-04-03T02:46:04.443Z,64.17
2019-04-03T02:48:38.256Z,63.77
2019-04-03T02:51:07.395Z,64.48
2019-04-03T02:53:37.839Z,66.45
2019-04-03T02:56:11.838Z,65.97
2019-04-03T02:58:40.640Z,65.27
2019-04-03T03:01:11.210Z,66.03
2019-04-03T03:03:41.543Z,64.59
2019-04-03T03:06:12.655Z,62.69
2019-04-03T03:08:44.050Z,61.52
2019-04-03T03:11:14.606Z,62.33
2019-04-03T03:13:46.367Z,60.69
2019-04-03T03:16:18.423Z,59.71
2019-04-03T03:18:49.019Z,59.89
2019-04-03T03:21:21.523Z,58.84
2019-04-03T03:23:55.207Z,59.17
2019-04-03T03:26:24.684Z,59.41
2019-04-03T03:28:55.188Z,59.29
2019-04-03T03:31:56.374Z,58.99
2019-04-03T03:34:02.973Z,59.34
2019-04-03T03:36:30.403Z,59.39
2019-04-03T03:39:01.426Z,60.55
2019-04-03T03:41:32.825Z,60.68
2019-04-03T03:44:04.165Z,61.82
2019-04-03T03:46:34.810Z,61.55
2019-04-03T03:49:05.648Z,61.60
2019-04-03T03:51:36.097Z,61.43
2019-04-03T03:54:06.585Z,60.67
2019-04-03T03:56:37.031Z,62.17
2019-04-03T03:59:07.726Z,61.96
2019-04-03T04:01:38.341Z,60.32
2019-04-03T04:04:12.960Z,59.06
2019-04-03T04:06:40.898Z,59.31
2019-04-03T04:09:11.525Z,59.00
2019-04-03T04:11:41.999Z,59.33
2019-04-03T04:14:13.937Z,60.88
2019-04-03T04:16:44.728Z,61.08
2019-04-03T04:19:15.645Z,62.14
2019-04-03T04:21:46.531Z,62.25
2019-04-03T04:24:17.149Z,60.67
2019-04-03T04:26:49.937Z,59.96
2019-04-03T04:29:19.791Z,59.86
2019-04-03T04:31:50.307Z,60.05
2019-04-03T04:34:20.709Z,60.65
2019-04-03T04:36:51.263Z,61.28
2019-04-03T04:39:21.675Z,61.79
2019-04-03T04:41:52.228Z,62.13
2019-04-03T04:44:22.719Z,62.73
2019-04-03T04:46:53.173Z,63.41
2019-04-03T04:49:23.567Z,63.23
2019-04-03T04:51:56.589Z,63.74
2019-04-03T04:54:26.218Z,64.18
2019-04-03T04:56:56.623Z,64.05
2019-04-03T04:59:27.071Z,65.00
2019-04-03T05:01:57.565Z,64.40
2019-04-03T05:04:28.017Z,65.76
2019-04-03T05:07:00.135Z,66.41
2019-04-03T05:09:30.745Z,66.71
2019-04-03T05:12:01.246Z,66.75
2019-04-03T05:14:31.736Z,67.23
2019-04-03T05:17:02.233Z,67.19
2019-04-03T05:19:32.960Z,67.15
2019-04-03T05:22:03.284Z,67.82
2019-04-03T05:24:33.790Z,67.68
2019-04-03T05:27:07.106Z,66.83
2019-04-03T05:29:36.387Z,66.28
2019-04-03T05:32:09.918Z,67.19
2019-04-03T05:34:39.053Z,68.51
2019-04-03T05:37:11.655Z,67.64
2019-04-03T05:39:42.234Z,68.72
2019-04-03T05:42:12.919Z,68.89
2019-04-03T05:44:43.379Z,69.25
2019-04-03T05:47:13.875Z,67.57
2019-04-03T05:49:46.421Z,65.30
2019-04-03T05:52:16.410Z,64.74
2019-04-03T05:54:46.855Z,64.73
2019-04-03T05:57:17.402Z,66.92
2019-04-03T05:59:59.151Z,67.05
2019-04-03T06:02:21.985Z,65.55
2019-04-03T06:04:52.507Z,64.32
2019-04-03T06:07:23.124Z,64.67
2019-04-03T06:09:54.427Z,64.51
2019-04-03T06:12:25.753Z,65.92
2019-04-03T06:14:56.482Z,64.08
2019-04-03T06:17:26.959Z,65.75
2019-04-03T06:19:57.733Z,63.86
2019-04-03T06:22:28.181Z,62.45
2019-04-03T06:24:58.883Z,62.34
2019-04-03T06:27:29.558Z,61.96
2019-04-03T06:30:00.069Z,61.22
2019-04-03T06:32:30.480Z,60.38
2019-04-03T06:35:01.024Z,60.72
2019-04-03T06:37:31.539Z,60.15
2019-04-03T06:40:03.293Z,59.71
2019-04-03T06:42:34.399Z,59.05
2019-04-03T06:45:05.547Z,57.88
2019-04-03T06:47:35.929Z,56.84
2019-04-03T06:50:07.398Z,55.56
2019-04-03T06:52:37.959Z,54.17
2019-04-03T06:55:08.517Z,54.15
2019-04-03T06:57:39.748Z,54.06
2019-04-03T07:00:10.694Z,54.35
2019-04-03T07:02:41.543Z,53.99
2019-04-03T07:05:12.025Z,53.31
2019-04-03T07:07:42.703Z,53.28
2019-04-03T07:10:24.079Z,52.98
2019-04-03T07:12:47.830Z,53.32
2019-04-03T07:15:17.486Z,53.53
2019-04-03T07:17:47.994Z,53.78
2019-04-03T07:20:20.137Z,53.36
2019-04-03T07:22:50.685Z,52.73
2019-04-03T07:25:21.387Z,53.38
2019-04-03T07:27:51.902Z,53.54
2019-04-03T07:30:22.511Z,52.05
2019-04-03T07:32:53.028Z,50.27
2019-04-03T07:35:23.396Z,49.68
2019-04-03T07:37:53.925Z,48.97
2019-04-03T07:40:24.392Z,49.06
2019-04-03T07:42:56.005Z,49.16
2019-04-03T07:45:27.202Z,47.63
2019-04-03T07:47:57.914Z,46.97
2019-04-03T07:50:28.434Z,45.88
2019-04-03T07:52:58.894Z,44.10
2019-04-03T07:55:29.557Z,42.35
2019-04-03T07:58:01.040Z,41.57
2019-04-03T08:00:31.998Z,40.62
2019-04-03T08:03:02.647Z,38.97
2019-04-03T08:05:33.247Z,38.49
2019-04-03T08:08:03.769Z,37.95
2019-04-03T08:10:37.138Z,35.42
2019-04-03T08:13:07.613Z,34.29
2019-04-03T08:15:38.211Z,33.11
2019-04-03T08:18:08.621Z,31.56
2019-04-03T08:20:39.368Z,31.43
2019-04-03T08:23:09.808Z,31.77
2019-04-03T08:25:42.405Z,31.12
2019-04-03T08:28:12.370Z,31.22
2019-04-03T08:30:42.869Z,30.56
2019-04-03T08:33:17.396Z,30.19
2019-04-03T08:35:46.648Z,30.36
2019-04-03T08:38:17.165Z,29.99
2019-04-03T08:40:48.002Z,29.51
2019-04-03T08:43:18.595Z,29.19
2019-04-03T08:45:49.136Z,28.92
2019-04-03T08:48:19.598Z,28.21
2019-04-03T08:50:50.047Z,27.71
2019-04-03T08:53:20.491Z,29.70
2019-04-03T08:55:50.956Z,27.03
2019-04-03T08:58:22.110Z,27.25
2019-04-03T09:00:53.757Z,26.15
2019-04-03T09:03:24.310Z,27.43
2019-04-03T09:05:55.848Z,26.82
2019-04-03T09:08:27.145Z,25.74
2019-04-03T09:10:57.702Z,25.97
2019-04-03T09:13:28.700Z,26.33
2019-04-03T09:16:00.263Z,26.85
2019-04-03T09:18:30.965Z,26.74
2019-04-03T09:21:01.580Z,26.42
2019-04-03T09:23:31.976Z,26.97
2019-04-03T09:26:03.802Z,26.43
2019-04-03T09:28:34.323Z,27.92
2019-04-03T09:31:04.801Z,27.14
2019-04-03T09:33:35.177Z,25.92
2019-04-03T09:36:05.722Z,26.79
2019-04-03T09:38:36.528Z,29.24
2019-04-03T09:41:06.953Z,29.29
2019-04-03T09:43:39.409Z,29.29
2019-04-03T09:46:09.546Z,30.11
2019-04-03T09:48:39.951Z,31.23
2019-04-03T09:51:10.646Z,31.62
2019-04-03T09:53:41.180Z,31.20
2019-04-03T09:56:12.062Z,29.67
2019-04-03T09:58:42.995Z,28.13
2019-04-03T10:01:17.765Z,27.95
2019-04-03T10:03:45.796Z,28.22
2019-04-03T10:06:16.331Z,26.70
2019-04-03T10:08:47.150Z,27.65
2019-04-03T10:11:19.600Z,26.52
2019-04-03T10:13:49.875Z,25.61
2019-04-03T10:16:20.476Z,25.05
2019-04-03T10:18:51.412Z,23.71
2019-04-03T10:21:22.244Z,23.24
2019-04-03T10:23:52.805Z,24.47
2019-04-03T10:26:23.257Z,23.74
2019-04-03T10:28:53.840Z,23.35
2019-04-03T10:31:24.839Z,22.50
2019-04-03T10:33:55.291Z,22.23
2019-04-03T10:36:25.685Z,22.42
2019-04-03T10:38:56.249Z,23.29
2019-04-03T10:41:28.673Z,22.08
2019-04-03T10:43:59.262Z,21.30
2019-04-03T10:46:29.914Z,22.17
2019-04-03T10:49:01.675Z,21.01
2019-04-03T10:51:32.203Z,21.28
2019-04-03T10:54:02.964Z,20.48
2019-04-03T10:56:33.419Z,21.10
2019-04-03T10:59:10.999Z,20.94
2019-04-03T11:01:36.706Z,21.32
2019-04-03T11:04:07.228Z,23.13
2019-04-03T11:06:37.916Z,21.55
2019-04-03T11:09:10.457Z,21.77
2019-04-03T11:11:42.967Z,20.27
2019-04-03T11:14:13.532Z,20.05
2019-04-03T11:16:46.511Z,18.81
2019-04-03T11:19:16.044Z,19.43
2019-04-03T11:21:46.429Z,18.84
2019-04-03T11:24:17.027Z,18.56
2019-04-03T11:26:49.024Z,19.38
2019-04-03T11:29:19.599Z,18.94
2019-04-03T11:31:50.072Z,19.94
2019-04-03T11:34:21.397Z,19.44
2019-04-03T11:36:52.188Z,18.09
2019-04-03T11:39:22.626Z,16.99
2019-04-03T11:41:55.075Z,16.36
2019-04-03T11:44:25.239Z,18.23
2019-04-03T11:46:56.114Z,18.64
2019-04-03T11:49:26.794Z,17.88
2019-04-03T11:51:58.959Z,18.34
2019-04-03T11:54:29.737Z,19.08
2019-04-03T11:57:00.272Z,18.39
2019-04-03T11:59:30.724Z,18.25
2019-04-03T12:02:01.258Z,17.64
2019-04-03T12:04:31.704Z,17.47
2019-04-03T12:07:02.142Z,18.07
2019-04-03T12:09:32.999Z,17.99
2019-04-03T12:12:05.513Z,17.34
2019-04-03T12:14:38.184Z,16.07
2019-04-03T12:17:10.157Z,16.55
2019-04-03T12:19:40.603Z,17.02
2019-04-03T12:22:11.160Z,17.89
2019-04-03T12:24:41.672Z,17.75
2019-04-03T12:27:14.053Z,17.64
2019-04-03T12:29:44.396Z,16.64
2019-04-03T12:32:15.045Z,16.42
2019-04-03T12:34:45.520Z,16.89
2019-04-03T12:37:18.146Z,17.78
2019-04-03T12:39:48.367Z,19.33
2019-04-03T12:42:18.833Z,20.70
2019-04-03T12:44:49.284Z,20.02
2019-04-03T12:47:19.788Z,18.42
2019-04-03T12:49:51.957Z,16.43
2019-04-03T12:52:23.219Z,16.08
2019-04-03T12:54:54.591Z,15.99
2019-04-03T12:57:25.378Z,15.10
2019-04-03T12:59:56.632Z,14.90
2019-04-03T13:02:27.307Z,14.28
2019-04-03T13:05:00.278Z,14.63
2019-04-03T13:07:30.556Z,14.49
2019-04-03T13:10:01.711Z,15.82
2019-04-03T13:12:32.279Z,15.70
2019-04-03T13:15:04.592Z,15.05
2019-04-03T13:17:34.835Z,15.48
2019-04-03T13:20:06.639Z,16.01
2019-04-03T13:22:37.750Z,15.94
2019-04-03T13:25:09.134Z,16.86
2019-04-03T13:27:39.770Z,17.70
2019-04-03T13:30:13.112Z,17.51
2019-04-03T13:32:51.881Z,19.05
2019-04-03T13:35:16.750Z,19.67
2019-04-03T13:37:47.577Z,20.78
2019-04-03T13:40:18.828Z,20.75
2019-04-03T13:42:49.644Z,21.21
2019-04-03T13:45:20.511Z,20.69
2019-04-03T13:47:51.036Z,21.35
2019-04-03T13:50:22.500Z,21.17
2019-04-03T13:52:54.045Z,21.62
2019-04-03T13:55:24.668Z,20.57
2019-04-03T13:57:55.212Z,20.61
2019-04-03T14:00:25.747Z,20.90
2019-04-03T14:02:57.769Z,21.52
2019-04-03T14:05:32.340Z,21.16
2019-04-03T14:08:00.715Z,21.45
2019-04-03T14:10:31.197Z,21.27
2019-04-03T14:13:01.680Z,20.82
2019-04-03T14:15:32.455Z,21.39
2019-04-03T14:18:03.033Z,20.83
2019-04-03T14:20:33.477Z,20.75
2019-04-03T14:23:04.600Z,21.66
2019-04-03T14:25:38.031Z,21.31
2019-04-03T14:28:07.582Z,21.63
2019-04-03T14:30:38.387Z,21.99
2019-04-03T14:33:08.822Z,21.96
2019-04-03T14:35:48.976Z,21.77
2019-04-03T14:38:12.366Z,22.11
2019-04-03T14:40:43.535Z,21.96
2019-04-03T14:43:15.268Z,21.76
2019-04-03T14:45:52.831Z,22.10
2019-04-03T14:48:24.121Z,21.44
2019-04-03T14:50:55.536Z,20.85
2019-04-03T14:53:26.070Z,21.35
2019-04-03T14:55:59.805Z,20.51
2019-04-03T14:58:28.655Z,20.20
2019-04-03T15:00:59.092Z,19.68
2019-04-03T15:03:29.450Z,19.38
2019-04-03T15:06:00.395Z,20.02
2019-04-03T15:08:31.334Z,20.18
2019-04-03T15:11:03.006Z,20.60
2019-04-03T15:13:34.314Z,19.44
2019-04-03T15:16:05.234Z,20.29
2019-04-03T15:18:36.171Z,19.69
2019-04-03T15:21:06.753Z,19.99
2019-04-03T15:23:40.440Z,20.16
2019-04-03T15:26:09.440Z,20.20
2019-04-03T15:28:39.902Z,20.24
2019-04-03T15:31:11.981Z,19.96
2019-04-03T15:33:42.501Z,20.57
2019-04-03T15:36:13.468Z,21.01
2019-04-03T15:38:45.302Z,21.70
2019-04-03T15:41:16.226Z,21.33
2019-04-03T15:43:47.733Z,22.35
2019-04-03T15:46:18.912Z,21.34
2019-04-03T15:48:51.037Z,22.71
2019-04-03T15:51:21.410Z,22.32
2019-04-03T15:53:51.878Z,22.44
2019-04-03T15:56:22.365Z,22.53
2019-04-03T15:58:53.094Z,23.19
2019-04-03T16:01:23.578Z,22.99
2019-04-03T16:03:54.453Z,22.82
2019-04-03T16:06:24.974Z,22.46
2019-04-03T16:08:55.529Z,23.26
2019-04-03T16:11:27.003Z,23.01
2019-04-03T16:13:58.098Z,22.97
2019-04-03T16:16:29.377Z,22.54
2019-04-03T16:19:00.461Z,23.86
2019-04-03T16:21:31.652Z,23.49
2019-04-03T16:24:02.713Z,23.27
2019-04-03T16:26:33.712Z,23.51
2019-04-03T16:29:06.639Z,24.47
2019-04-03T16:31:36.568Z,25.03
2019-04-03T16:34:09.387Z,24.59
2019-04-03T16:36:39.571Z,24.84
2019-04-03T16:39:10.430Z,26.50
2019-04-03T16:41:43.296Z,26.68
2019-04-03T16:44:13.217Z,26.88
2019-04-03T16:46:43.658Z,25.08
2019-04-03T16:49:14.220Z,24.84
2019-04-03T16:51:44.760Z,25.01
2019-04-03T16:54:15.652Z,25.28
2019-04-03T16:56:47.001Z,25.92
2019-04-03T16:59:18.322Z,25.57
2019-04-03T17:01:48.872Z,26.19
2019-04-03T17:04:26.108Z,26.49
2019-04-03T17:06:51.383Z,25.75
2019-04-03T17:09:21.796Z,25.79
2019-04-03T17:11:52.250Z,25.75
2019-04-03T17:14:24.417Z,25.61
2019-04-03T17:16:55.025Z,25.59
2019-04-03T17:19:25.607Z,25.68
2019-04-03T17:21:56.158Z,25.43
2019-04-03T17:24:26.931Z,25.41
2019-04-03T17:26:59.569Z,25.28
2019-04-03T17:29:29.588Z,26.00
2019-04-03T17:32:00.054Z,25.76
2019-04-03T17:34:30.514Z,26.15
2019-04-03T17:37:01.426Z,26.74
2019-04-03T17:39:31.878Z,27.57
2019-04-03T17:42:02.302Z,27.87
2019-04-03T17:44:32.736Z,27.91
2019-04-03T17:47:03.285Z,27.72
2019-04-03T17:49:33.789Z,28.36
2019-04-03T17:52:05.151Z,28.49
2019-04-03T17:54:38.288Z,29.09
2019-04-03T17:57:08.562Z,29.05
2019-04-03T17:59:39.005Z,29.35
2019-04-03T18:02:09.424Z,30.51
2019-04-03T18:04:39.949Z,31.03
2019-04-03T18:07:12.119Z,30.94
2019-04-03T18:09:42.847Z,32.44
2019-04-03T18:12:13.484Z,31.47
2019-04-03T18:14:43.953Z,31.10
2019-04-03T18:17:14.341Z,31.24
2019-04-03T18:19:45.101Z,32.06
2019-04-03T18:22:15.597Z,30.93
2019-04-03T18:24:46.120Z,30.83
2019-04-03T18:27:16.648Z,30.33
2019-04-03T18:29:47.063Z,30.88
2019-04-03T18:32:17.616Z,30.44
2019-04-03T18:34:51.061Z,31.50
2019-04-03T18:37:20.084Z,30.04
2019-04-03T18:39:51.508Z,30.25
2019-04-03T18:42:22.073Z,30.36
2019-04-03T18:44:52.546Z,30.18
2019-04-03T18:47:22.998Z,30.38
2019-04-03T18:49:55.496Z,30.56
2019-04-03T18:52:25.623Z,30.12
2019-04-03T18:54:56.061Z,30.76
2019-04-03T18:57:26.477Z,31.86
2019-04-03T19:00:00.355Z,32.37
2019-04-03T19:02:29.198Z,32.59
2019-04-03T19:05:02.357Z,31.94
2019-04-03T19:07:31.921Z,32.00
2019-04-03T19:10:07.357Z,32.02
2019-04-03T19:12:36.066Z,31.90
2019-04-03T19:15:08.163Z,32.94
2019-04-03T19:17:38.551Z,32.90
2019-04-03T19:20:11.000Z,34.09
2019-04-03T19:22:41.939Z,33.72
2019-04-03T19:25:12.425Z,34.41
2019-04-03T19:27:42.840Z,36.04
2019-04-03T19:30:15.295Z,34.73
2019-04-03T19:32:45.750Z,34.86
2019-04-03T19:35:16.299Z,34.65
2019-04-03T19:37:46.692Z,36.12
2019-04-03T19:40:17.186Z,34.85
2019-04-03T19:42:48.957Z,36.44
2019-04-03T19:45:21.359Z,38.18
2019-04-03T19:47:54.598Z,37.33
2019-04-03T19:50:24.064Z,37.96
2019-04-03T19:52:54.554Z,37.86
2019-04-03T19:55:24.962Z,38.12
2019-04-03T19:57:57.466Z,39.26
2019-04-03T20:00:27.734Z,37.65
2019-04-03T20:02:58.382Z,36.83
2019-04-03T20:05:29.597Z,38.59
2019-04-03T20:08:00.074Z,39.02
2019-04-03T20:10:33.524Z,38.45
2019-04-03T20:13:02.751Z,38.03
2019-04-03T20:15:33.147Z,38.56
2019-04-03T20:18:03.578Z,36.48
2019-04-03T20:20:34.026Z,37.20
2019-04-03T20:23:04.508Z,37.87
2019-04-03T20:25:34.928Z,39.17
2019-04-03T20:28:05.545Z,39.80
2019-04-03T20:30:36.013Z,39.35
2019-04-03T20:33:06.424Z,40.61
2019-04-03T20:35:36.970Z,41.42
2019-04-03T20:38:07.368Z,43.06
2019-04-03T20:40:39.825Z,47.69
2019-04-03T20:43:11.918Z,49.93
2019-04-03T20:45:42.463Z,51.65
2019-04-03T20:48:12.887Z,52.13
2019-04-03T20:50:43.367Z,54.09
2019-04-03T20:53:16.783Z,55.00
2019-04-03T20:55:46.724Z,57.51
2019-04-03T20:58:17.086Z,58.47
2019-04-03T21:00:49.972Z,58.64
2019-04-03T21:03:19.593Z,59.15
2019-04-03T21:05:50.033Z,59.73
2019-04-03T21:08:20.514Z,59.77
2019-04-03T21:10:51.903Z,60.09
2019-04-03T21:13:22.669Z,60.64
2019-04-03T21:15:53.175Z,61.37
2019-04-03T21:18:23.640Z,61.70
2019-04-03T21:20:54.710Z,61.54
2019-04-03T21:23:25.738Z,61.68
2019-04-03T21:25:56.179Z,62.23
2019-04-03T21:28:26.653Z,62.90
2019-04-03T21:30:57.002Z,63.27
2019-04-03T21:33:30.518Z,63.35
2019-04-03T21:35:59.729Z,63.10
2019-04-03T21:38:30.202Z,63.10
2019-04-03T21:41:00.554Z,63.73
2019-04-03T21:43:30.956Z,63.31
2019-04-03T21:46:01.341Z,62.99
2019-04-03T21:48:31.788Z,62.75
2019-04-03T21:51:02.380Z,62.41
2019-04-03T21:53:32.751Z,63.04
2019-04-03T21:56:03.177Z,64.08
2019-04-03T21:58:33.533Z,64.54
2019-04-03T22:01:25.274Z,64.23
2019-04-03T22:03:55.721Z,63.95
2019-04-03T22:06:27.598Z,63.96
2019-04-03T22:09:00.508Z,64.08
2019-04-03T22:11:30.414Z,63.85
2019-04-03T22:14:00.970Z,63.50
2019-04-03T22:16:31.445Z,63.45
2019-04-03T22:19:01.782Z,63.49
2019-04-03T22:21:32.945Z,63.25
2019-04-03T22:24:06.598Z,63.52
2019-04-03T22:26:35.899Z,63.90
2019-04-03T22:29:06.293Z,64.29
2019-04-03T22:31:36.691Z,64.53
2019-04-03T22:34:07.108Z,64.51
2019-04-03T22:36:37.630Z,64.87
2019-04-03T22:39:08.798Z,64.64
2019-04-03T22:41:40.948Z,64.69
2019-04-03T22:44:11.524Z,65.32
2019-04-03T22:46:41.872Z,65.56
2019-04-03T22:49:12.366Z,66.34
2019-04-03T22:51:42.801Z,66.45
2019-04-03T22:54:13.339Z,66.09
2019-04-03T22:56:43.838Z,65.46
2019-04-03T22:59:15.885Z,65.76
2019-04-03T23:01:46.303Z,65.60
2019-04-03T23:04:16.694Z,64.84
2019-04-03T23:06:49.375Z,64.81
2019-04-03T23:09:19.169Z,64.23
2019-04-03T23:11:49.685Z,64.54
2019-04-03T23:14:20.132Z,64.04
2019-04-03T23:16:50.617Z,64.38
2019-04-03T23:19:21.084Z,64.65
2019-04-03T23:21:52.900Z,64.62
2019-04-03T23:24:23.862Z,64.45
2019-04-03T23:26:54.383Z,65.43
2019-04-03T23:29:24.957Z,65.57
2019-04-03T23:31:55.471Z,65.66
2019-04-03T23:34:25.857Z,65.08
2019-04-03T23:36:56.320Z,64.99
2019-04-03T23:39:28.012Z,64.65
2019-04-03T23:41:58.858Z,65.31
2019-04-03T23:44:29.369Z,65.67
2019-04-03T23:46:59.859Z,65.05
2019-04-03T23:49:30.312Z,65.44
2019-04-03T23:52:00.797Z,65.35
2019-04-03T23:54:33.574Z,65.42
2019-04-03T23:57:03.527Z,65.02
2019-04-03T23:59:34.007Z,65.17
